sensor_id;sensor_type;location;lat;lon;timestamp;pressure;altitude;pressure_sealevel;temperature;humidity
76297;BME280;65104;52.994;6.552;2023-05-19T00:01:06;102833.31;;;7.81;100.00
76297;BME280;65104;52.994;6.552;2023-05-19T00:03:32;102827.50;;;7.84;100.00
76297;BME280;65104;52.994;6.552;2023-05-19T00:06:01;102835.03;;;7.68;100.00
76297;BME280;65104;52.994;6.552;2023-05-19T00:08:29;102832.47;;;7.54;100.00
76297;BME280;65104;52.994;6.552;2023-05-19T00:10:56;102831.91;;;7.45;100.00
76297;BME280;65104;52.994;6.552;2023-05-19T00:13:22;102831.63;;;7.28;100.00
76297;BME280;65104;52.994;6.552;2023-05-19T00:15:48;102823.38;;;7.32;100.00
76297;BME280;65104;52.994;6.552;2023-05-19T00:18:14;102822.00;;;7.37;100.00
76297;BME280;65104;52.994;6.552;2023-05-19T00:20:41;102820.22;;;7.36;100.00
76297;BME280;65104;52.994;6.552;2023-05-19T00:23:06;102823.25;;;7.43;100.00
76297;BME280;65104;52.994;6.552;2023-05-19T00:25:32;102818.91;;;7.56;100.00
76297;BME280;65104;52.994;6.552;2023-05-19T00:27:57;102811.94;;;7.53;100.00
76297;BME280;65104;52.994;6.552;2023-05-19T00:30:23;102805.72;;;7.63;100.00
76297;BME280;65104;52.994;6.552;2023-05-19T00:32:49;102810.66;;;7.60;100.00
76297;BME280;65104;52.994;6.552;2023-05-19T00:35:15;102814.47;;;7.66;100.00
76297;BME280;65104;52.994;6.552;2023-05-19T00:37:40;102804.16;;;7.65;100.00
76297;BME280;65104;52.994;6.552;2023-05-19T00:40:06;102801.69;;;7.66;100.00
76297;BME280;65104;52.994;6.552;2023-05-19T00:42:32;102802.38;;;7.64;100.00
76297;BME280;65104;52.994;6.552;2023-05-19T00:44:58;102808.00;;;7.58;100.00
76297;BME280;65104;52.994;6.552;2023-05-19T00:47:23;102794.44;;;7.59;100.00
76297;BME280;65104;52.994;6.552;2023-05-19T00:49:48;102797.59;;;7.55;100.00
76297;BME280;65104;52.994;6.552;2023-05-19T00:52:14;102800.75;;;7.51;100.00
76297;BME280;65104;52.994;6.552;2023-05-19T00:54:39;102802.13;;;7.46;100.00
76297;BME280;65104;52.994;6.552;2023-05-19T00:57:05;102800.50;;;7.33;100.00
76297;BME280;65104;52.994;6.552;2023-05-19T00:59:30;102795.06;;;7.29;100.00
76297;BME280;65104;52.994;6.552;2023-05-19T01:01:56;102800.38;;;7.32;100.00
76297;BME280;65104;52.994;6.552;2023-05-19T01:04:21;102797.53;;;7.27;100.00
76297;BME280;65104;52.994;6.552;2023-05-19T01:06:50;102792.63;;;7.17;100.00
76297;BME280;65104;52.994;6.552;2023-05-19T01:09:22;102788.53;;;7.06;100.00
76297;BME280;65104;52.994;6.552;2023-05-19T01:11:49;102788.78;;;7.10;100.00
76297;BME280;65104;52.994;6.552;2023-05-19T01:14:14;102791.44;;;7.25;100.00
76297;BME280;65104;52.994;6.552;2023-05-19T01:17:03;102785.72;;;7.29;100.00
76297;BME280;65104;52.994;6.552;2023-05-19T01:19:55;102788.53;;;7.06;100.00
76297;BME280;65104;52.994;6.552;2023-05-19T01:28:30;102785.06;;;6.92;100.00
76297;BME280;65104;52.994;6.552;2023-05-19T01:30:58;102794.91;;;6.86;100.00
76297;BME280;65104;52.994;6.552;2023-05-19T01:33:25;102800.88;;;6.87;100.00
76297;BME280;65104;52.994;6.552;2023-05-19T01:35:54;102790.69;;;6.87;100.00
76297;BME280;65104;52.994;6.552;2023-05-19T01:38:20;102784.78;;;6.88;100.00
76297;BME280;65104;52.994;6.552;2023-05-19T01:40:47;102784.28;;;6.93;100.00
76297;BME280;65104;52.994;6.552;2023-05-19T01:43:16;102780.94;;;6.94;100.00
76297;BME280;65104;52.994;6.552;2023-05-19T01:45:43;102779.38;;;6.96;100.00
76297;BME280;65104;52.994;6.552;2023-05-19T01:48:10;102782.31;;;7.02;100.00
76297;BME280;65104;52.994;6.552;2023-05-19T01:50:37;102778.97;;;7.03;100.00
76297;BME280;65104;52.994;6.552;2023-05-19T01:53:02;102780.63;;;6.90;100.00
76297;BME280;65104;52.994;6.552;2023-05-19T01:55:28;102770.81;;;6.83;100.00
76297;BME280;65104;52.994;6.552;2023-05-19T02:00:45;102768.38;;;6.97;100.00
76297;BME280;65104;52.994;6.552;2023-05-19T02:03:40;102768.88;;;7.05;100.00
76297;BME280;65104;52.994;6.552;2023-05-19T02:07:04;102762.28;;;6.95;100.00
76297;BME280;65104;52.994;6.552;2023-05-19T02:12:18;102762.38;;;6.70;100.00
76297;BME280;65104;52.994;6.552;2023-05-19T02:17:13;102765.31;;;6.63;100.00
76297;BME280;65104;52.994;6.552;2023-05-19T02:19:40;102765.41;;;6.65;100.00
76297;BME280;65104;52.994;6.552;2023-05-19T02:22:07;102764.34;;;6.74;100.00
76297;BME280;65104;52.994;6.552;2023-05-19T02:24:32;102765.41;;;6.65;100.00
76297;BME280;65104;52.994;6.552;2023-05-19T02:26:58;102756.97;;;6.66;100.00
76297;BME280;65104;52.994;6.552;2023-05-19T02:29:23;102759.59;;;6.54;100.00
76297;BME280;65104;52.994;6.552;2023-05-19T02:31:49;102760.66;;;6.45;100.00
76297;BME280;65104;52.994;6.552;2023-05-19T02:34:14;102755.19;;;6.52;100.00
76297;BME280;65104;52.994;6.552;2023-05-19T02:36:41;102754.16;;;6.36;100.00
76297;BME280;65104;52.994;6.552;2023-05-19T02:39:10;102749.66;;;6.32;100.00
76297;BME280;65104;52.994;6.552;2023-05-19T02:41:36;102743.34;;;6.27;100.00
76297;BME280;65104;52.994;6.552;2023-05-19T02:44:02;102734.13;;;6.16;100.00
76297;BME280;65104;52.994;6.552;2023-05-19T02:46:27;102745.28;;;6.18;100.00
76297;BME280;65104;52.994;6.552;2023-05-19T02:48:53;102747.84;;;6.18;100.00
76297;BME280;65104;52.994;6.552;2023-05-19T02:51:18;102747.16;;;6.21;100.00
76297;BME280;65104;52.994;6.552;2023-05-19T02:53:43;102741.19;;;6.20;100.00
76297;BME280;65104;52.994;6.552;2023-05-19T02:56:09;102738.63;;;6.20;100.00
76297;BME280;65104;52.994;6.552;2023-05-19T02:58:34;102739.31;;;6.18;100.00
76297;BME280;65104;52.994;6.552;2023-05-19T03:00:59;102750.59;;;6.21;100.00
76297;BME280;65104;52.994;6.552;2023-05-19T03:03:25;102740.28;;;6.20;100.00
76297;BME280;65104;52.994;6.552;2023-05-19T03:05:51;102733.25;;;6.16;100.00
76297;BME280;65104;52.994;6.552;2023-05-19T03:08:17;102738.63;;;6.07;100.00
76297;BME280;65104;52.994;6.552;2023-05-19T03:10:44;102734.28;;;6.06;100.00
76297;BME280;65104;52.994;6.552;2023-05-19T03:13:10;102738.63;;;6.07;100.00
76297;BME280;65104;52.994;6.552;2023-05-19T03:15:37;102724.88;;;6.05;100.00
76297;BME280;65104;52.994;6.552;2023-05-19T03:18:03;102741.06;;;6.19;100.00
76297;BME280;65104;52.994;6.552;2023-05-19T03:20:29;102740.78;;;6.14;100.00
76297;BME280;65104;52.994;6.552;2023-05-19T03:22:55;102741.56;;;6.13;100.00
76297;BME280;65104;52.994;6.552;2023-05-19T03:25:20;102743.00;;;6.10;100.00
76297;BME280;65104;52.994;6.552;2023-05-19T03:27:46;102741.94;;;6.06;100.00
76297;BME280;65104;52.994;6.552;2023-05-19T03:30:12;102745.28;;;6.05;100.00
76297;BME280;65104;52.994;6.552;2023-05-19T03:32:37;102743.00;;;6.10;100.00
76297;BME280;65104;52.994;6.552;2023-05-19T03:35:03;102745.00;;;6.14;100.00
76297;BME280;65104;52.994;6.552;2023-05-19T03:37:29;102732.53;;;6.18;100.00
76297;BME280;65104;52.994;6.552;2023-05-19T03:39:55;102748.06;;;6.21;100.00
76297;BME280;65104;52.994;6.552;2023-05-19T03:42:21;102742.94;;;6.21;100.00
76297;BME280;65104;52.994;6.552;2023-05-19T03:44:46;102746.69;;;6.26;100.00
76297;BME280;65104;52.994;6.552;2023-05-19T03:47:12;102741.78;;;6.29;100.00
76297;BME280;65104;52.994;6.552;2023-05-19T03:49:37;102741.63;;;6.39;100.00
76297;BME280;65104;52.994;6.552;2023-05-19T03:52:03;102735.44;;;6.49;100.00
76297;BME280;65104;52.994;6.552;2023-05-19T03:54:28;102739.19;;;6.54;100.00
76297;BME280;65104;52.994;6.552;2023-05-19T03:56:54;102736.94;;;6.59;100.00
76297;BME280;65104;52.994;6.552;2023-05-19T03:59:19;102736.53;;;6.66;100.00
76297;BME280;65104;52.994;6.552;2023-05-19T04:01:45;102740.56;;;6.75;100.00
76297;BME280;65104;52.994;6.552;2023-05-19T04:04:10;102742.56;;;6.80;100.00
76297;BME280;65104;52.994;6.552;2023-05-19T04:06:36;102742.34;;;6.76;100.00
76297;BME280;65104;52.994;6.552;2023-05-19T04:09:02;102740.38;;;6.72;100.00
76297;BME280;65104;52.994;6.552;2023-05-19T04:11:34;102741.97;;;6.70;100.00
76297;BME280;65104;52.994;6.552;2023-05-19T04:14:01;102744.19;;;6.66;100.00
76297;BME280;65104;52.994;6.552;2023-05-19T04:16:26;102744.09;;;6.64;100.00
76297;BME280;65104;52.994;6.552;2023-05-19T04:18:51;102749.41;;;6.67;100.00
76297;BME280;65104;52.994;6.552;2023-05-19T04:21:17;102751.47;;;6.73;100.00
76297;BME280;65104;52.994;6.552;2023-05-19T04:23:42;102744.91;;;6.76;100.00
76297;BME280;65104;52.994;6.552;2023-05-19T04:26:08;102757.84;;;6.93;100.00
76297;BME280;65104;52.994;6.552;2023-05-19T04:28:33;102749.31;;;6.92;100.00
76297;BME280;65104;52.994;6.552;2023-05-19T04:31:02;102755.22;;;7.04;100.00
76297;BME280;65104;52.994;6.552;2023-05-19T04:33:28;102756.38;;;7.09;100.00
76297;BME280;65104;52.994;6.552;2023-05-19T04:35:53;102762.25;;;7.08;100.00
76297;BME280;65104;52.994;6.552;2023-05-19T04:38:19;102757.88;;;7.06;100.00
76297;BME280;65104;52.994;6.552;2023-05-19T04:40:46;102744.47;;;7.10;100.00
76297;BME280;65104;52.994;6.552;2023-05-19T04:43:14;102755.00;;;7.14;100.00
76297;BME280;65104;52.994;6.552;2023-05-19T04:45:39;102747.03;;;7.23;100.00
76297;BME280;65104;52.994;6.552;2023-05-19T04:48:06;102741.78;;;7.35;100.00
76297;BME280;65104;52.994;6.552;2023-05-19T04:50:32;102742.41;;;7.31;100.00
76297;BME280;65104;52.994;6.552;2023-05-19T04:52:59;102747.47;;;7.44;100.00
76297;BME280;65104;52.994;6.552;2023-05-19T04:55:24;102742.75;;;7.50;100.00
76297;BME280;65104;52.994;6.552;2023-05-19T04:57:50;102747.22;;;7.67;100.00
76297;BME280;65104;52.994;6.552;2023-05-19T05:00:16;102745.63;;;7.69;100.00
76297;BME280;65104;52.994;6.552;2023-05-19T05:02:41;102745.91;;;7.74;100.00
76297;BME280;65104;52.994;6.552;2023-05-19T05:05:07;102747.03;;;7.79;100.00
76297;BME280;65104;52.994;6.552;2023-05-19T05:07:34;102741.97;;;7.94;100.00
76297;BME280;65104;52.994;6.552;2023-05-19T05:09:59;102735.47;;;7.99;100.00
76297;BME280;65104;52.994;6.552;2023-05-19T05:12:25;102751.25;;;8.06;100.00
76297;BME280;65104;52.994;6.552;2023-05-19T05:14:50;102750.38;;;8.06;100.00
76297;BME280;65104;52.994;6.552;2023-05-19T05:17:16;102737.41;;;8.03;100.00
76297;BME280;65104;52.994;6.552;2023-05-19T05:19:41;102747.81;;;8.06;100.00
76297;BME280;65104;52.994;6.552;2023-05-19T05:22:07;102746.44;;;8.11;100.00
76297;BME280;65104;52.994;6.552;2023-05-19T05:24:33;102748.34;;;8.15;100.00
76297;BME280;65104;52.994;6.552;2023-05-19T05:26:58;102750.75;;;8.12;100.00
76297;BME280;65104;52.994;6.552;2023-05-19T05:29:24;102750.13;;;8.16;100.00
76297;BME280;65104;52.994;6.552;2023-05-19T05:31:50;102760.56;;;8.19;100.00
76297;BME280;65104;52.994;6.552;2023-05-19T05:34:15;102758.00;;;8.19;100.00
76297;BME280;65104;52.994;6.552;2023-05-19T05:36:41;102754.00;;;8.24;100.00
76297;BME280;65104;52.994;6.552;2023-05-19T05:39:06;102758.34;;;8.25;100.00
76297;BME280;65104;52.994;6.552;2023-05-19T05:41:33;102757.94;;;8.32;100.00
76297;BME280;65104;52.994;6.552;2023-05-19T05:44:01;102757.13;;;8.33;100.00
76297;BME280;65104;52.994;6.552;2023-05-19T05:46:27;102754.78;;;8.36;100.00
76297;BME280;65104;52.994;6.552;2023-05-19T05:48:52;102752.22;;;8.36;100.00
76297;BME280;65104;52.994;6.552;2023-05-19T05:51:20;102754.31;;;8.43;100.00
76297;BME280;65104;52.994;6.552;2023-05-19T05:53:51;102759.81;;;8.64;100.00
76297;BME280;65104;52.994;6.552;2023-05-19T05:56:17;102758.66;;;8.74;100.00
76297;BME280;65104;52.994;6.552;2023-05-19T05:58:42;102760.28;;;8.88;100.00
76297;BME280;65104;52.994;6.552;2023-05-19T06:01:08;102748.97;;;8.99;100.00
76297;BME280;65104;52.994;6.552;2023-05-19T06:03:41;102761.75;;;9.14;100.00
76297;BME280;65104;52.994;6.552;2023-05-19T06:06:09;102763.31;;;9.26;100.00
76297;BME280;65104;52.994;6.552;2023-05-19T06:08:35;102768.13;;;9.36;100.00
76297;BME280;65104;52.994;6.552;2023-05-19T06:11:01;102767.38;;;9.54;100.00
76297;BME280;65104;52.994;6.552;2023-05-19T06:13:36;102762.50;;;9.74;100.00
76297;BME280;65104;52.994;6.552;2023-05-19T06:16:01;102771.88;;;9.90;100.00
76297;BME280;65104;52.994;6.552;2023-05-19T06:18:27;102762.00;;;9.98;100.00
76297;BME280;65104;52.994;6.552;2023-05-19T06:20:53;102769.47;;;10.09;100.00
76297;BME280;65104;52.994;6.552;2023-05-19T06:23:18;102772.25;;;10.14;100.00
76297;BME280;65104;52.994;6.552;2023-05-19T06:25:44;102748.69;;;10.21;100.00
76297;BME280;65104;52.994;6.552;2023-05-19T06:28:09;102776.31;;;10.43;100.00
76297;BME280;65104;52.994;6.552;2023-05-19T06:30:35;102770.84;;;10.53;100.00
76297;BME280;65104;52.994;6.552;2023-05-19T06:33:01;102759.25;;;10.61;97.64
76297;BME280;65104;52.994;6.552;2023-05-19T06:35:27;102760.97;;;10.78;96.94
76297;BME280;65104;52.994;6.552;2023-05-19T06:37:52;102773.44;;;11.06;95.43
76297;BME280;65104;52.994;6.552;2023-05-19T06:40:19;102768.13;;;11.21;91.88
76297;BME280;65104;52.994;6.552;2023-05-19T06:42:45;102758.06;;;11.25;90.22
76297;BME280;65104;52.994;6.552;2023-05-19T06:45:11;102762.91;;;11.56;88.14
76297;BME280;65104;52.994;6.552;2023-05-19T06:47:36;102759.69;;;11.60;85.60
76297;BME280;65104;52.994;6.552;2023-05-19T06:50:02;102758.56;;;11.92;86.67
76297;BME280;65104;52.994;6.552;2023-05-19T06:52:27;102765.63;;;12.17;85.99
76297;BME280;65104;52.994;6.552;2023-05-19T06:54:53;102765.16;;;12.26;86.78
76297;BME280;65104;52.994;6.552;2023-05-19T06:57:18;102773.78;;;12.47;81.97
76297;BME280;65104;52.994;6.552;2023-05-19T06:59:44;102771.41;;;12.52;76.59
76297;BME280;65104;52.994;6.552;2023-05-19T07:02:10;102775.25;;;12.61;81.21
76297;BME280;65104;52.994;6.552;2023-05-19T07:04:36;102777.22;;;12.89;82.17
76297;BME280;65104;52.994;6.552;2023-05-19T07:07:01;102762.69;;;12.91;77.45
76297;BME280;65104;52.994;6.552;2023-05-19T07:09:27;102768.59;;;13.09;76.80
76297;BME280;65104;52.994;6.552;2023-05-19T07:11:53;102771.03;;;13.06;75.44
76297;BME280;65104;52.994;6.552;2023-05-19T07:14:20;102767.94;;;13.13;68.34
76297;BME280;65104;52.994;6.552;2023-05-19T07:16:45;102769.56;;;13.34;66.77
76297;BME280;65104;52.994;6.552;2023-05-19T07:19:11;102766.75;;;13.50;73.63
76297;BME280;65104;52.994;6.552;2023-05-19T07:21:36;102770.66;;;13.63;66.82
76297;BME280;65104;52.994;6.552;2023-05-19T07:24:02;102765.56;;;14.37;62.51
76297;BME280;65104;52.994;6.552;2023-05-19T07:26:27;102768.66;;;14.27;61.42
76297;BME280;65104;52.994;6.552;2023-05-19T07:28:53;102766.47;;;14.90;60.39
76297;BME280;65104;52.994;6.552;2023-05-19T07:31:18;102767.69;;;15.01;59.72
76297;BME280;65104;52.994;6.552;2023-05-19T07:33:44;102765.41;;;14.83;59.08
76297;BME280;65104;52.994;6.552;2023-05-19T07:36:09;102763.81;;;14.61;58.32
76297;BME280;65104;52.994;6.552;2023-05-19T07:38:35;102774.59;;;14.24;57.05
76297;BME280;65104;52.994;6.552;2023-05-19T07:41:01;102762.91;;;14.36;59.44
76297;BME280;65104;52.994;6.552;2023-05-19T07:43:27;102761.38;;;14.41;58.64
76297;BME280;65104;52.994;6.552;2023-05-19T07:45:52;102766.06;;;14.27;57.93
76297;BME280;65104;52.994;6.552;2023-05-19T07:48:18;102753.69;;;14.42;57.10
76297;BME280;65104;52.994;6.552;2023-05-19T07:50:47;102766.22;;;14.32;55.84
76297;BME280;65104;52.994;6.552;2023-05-19T07:53:14;102754.69;;;14.46;57.98
76297;BME280;65104;52.994;6.552;2023-05-19T07:55:40;102756.38;;;14.45;56.79
76297;BME280;65104;52.994;6.552;2023-05-19T07:58:06;102752.53;;;14.59;55.71
76297;BME280;65104;52.994;6.552;2023-05-19T08:00:32;102757.56;;;14.55;54.81
76297;BME280;65104;52.994;6.552;2023-05-19T08:02:57;102758.22;;;14.48;53.64
76297;BME280;65104;52.994;6.552;2023-05-19T08:05:23;102762.56;;;14.50;55.57
76297;BME280;65104;52.994;6.552;2023-05-19T08:07:51;102750.59;;;14.52;54.79
76297;BME280;65104;52.994;6.552;2023-05-19T08:10:16;102751.88;;;14.65;53.18
76297;BME280;65104;52.994;6.552;2023-05-19T08:12:42;102745.72;;;14.88;52.26
76297;BME280;65104;52.994;6.552;2023-05-19T08:15:09;102740.50;;;14.87;54.37
76297;BME280;65104;52.994;6.552;2023-05-19T08:17:39;102741.00;;;15.03;51.46
76297;BME280;65104;52.994;6.552;2023-05-19T08:20:06;102734.06;;;15.29;50.39
76297;BME280;65104;52.994;6.552;2023-05-19T08:22:35;102741.63;;;15.23;48.71
76297;BME280;65104;52.994;6.552;2023-05-19T08:25:01;102742.94;;;15.39;46.27
76297;BME280;65104;52.994;6.552;2023-05-19T08:27:28;102740.28;;;15.36;46.46
76297;BME280;65104;52.994;6.552;2023-05-19T08:29:55;102726.28;;;15.29;46.67
76297;BME280;65104;52.994;6.552;2023-05-19T08:32:21;102732.91;;;15.50;47.43
76297;BME280;65104;52.994;6.552;2023-05-19T08:34:47;102734.59;;;15.49;46.82
76297;BME280;65104;52.994;6.552;2023-05-19T08:37:14;102727.56;;;15.44;47.38
76297;BME280;65104;52.994;6.552;2023-05-19T08:39:41;102733.63;;;15.44;48.39
76297;BME280;65104;52.994;6.552;2023-05-19T08:42:07;102715.50;;;15.74;46.88
76297;BME280;65104;52.994;6.552;2023-05-19T08:44:36;102715.63;;;16.11;46.96
76297;BME280;65104;52.994;6.552;2023-05-19T08:47:03;102711.31;;;16.45;43.34
76297;BME280;65104;52.994;6.552;2023-05-19T08:49:32;102719.56;;;16.65;42.34
76297;BME280;65104;52.994;6.552;2023-05-19T08:52:26;102710.59;;;16.86;42.32
76297;BME280;65104;52.994;6.552;2023-05-19T08:57:31;102701.41;;;17.43;40.68
76297;BME280;65104;52.994;6.552;2023-05-19T08:59:58;102698.72;;;17.80;39.85
76297;BME280;65104;52.994;6.552;2023-05-19T09:02:24;102699.50;;;18.26;40.91
76297;BME280;65104;52.994;6.552;2023-05-19T09:04:51;102700.94;;;18.07;40.84
76297;BME280;65104;52.994;6.552;2023-05-19T09:07:17;102694.31;;;18.24;38.50
76297;BME280;65104;52.994;6.552;2023-05-19T09:09:43;102697.34;;;18.52;39.33
76297;BME280;65104;52.994;6.552;2023-05-19T09:12:13;102697.72;;;18.22;38.86
76297;BME280;65104;52.994;6.552;2023-05-19T09:14:40;102691.91;;;18.38;35.93
76297;BME280;65104;52.994;6.552;2023-05-19T09:17:07;102683.91;;;18.79;38.18
76297;BME280;65104;52.994;6.552;2023-05-19T09:19:34;102690.34;;;19.06;39.34
76297;BME280;65104;52.994;6.552;2023-05-19T09:22:00;102686.50;;;19.46;35.09
76297;BME280;65104;52.994;6.552;2023-05-19T09:24:29;102690.47;;;19.14;35.87
76297;BME280;65104;52.994;6.552;2023-05-19T09:26:56;102684.75;;;18.79;36.74
76297;BME280;65104;52.994;6.552;2023-05-19T09:29:21;102687.03;;;19.20;37.08
76297;BME280;65104;52.994;6.552;2023-05-19T09:31:52;102677.03;;;18.84;36.00
76297;BME280;65104;52.994;6.552;2023-05-19T09:34:19;102677.09;;;18.90;37.53
76297;BME280;65104;52.994;6.552;2023-05-19T09:36:50;102669.59;;;19.13;35.92
76297;BME280;65104;52.994;6.552;2023-05-19T09:39:21;102667.94;;;19.19;39.06
76297;BME280;65104;52.994;6.552;2023-05-19T09:41:51;102669.38;;;18.96;34.36
76297;BME280;65104;52.994;6.552;2023-05-19T09:44:35;102667.56;;;19.61;33.63
76297;BME280;65104;52.994;6.552;2023-05-19T09:47:02;102663.41;;;18.46;33.91
76297;BME280;65104;52.994;6.552;2023-05-19T09:49:28;102658.66;;;18.73;38.41
76297;BME280;65104;52.994;6.552;2023-05-19T09:52:00;102664.50;;;18.57;35.42
76297;BME280;65104;52.994;6.552;2023-05-19T09:54:27;102660.03;;;18.53;34.17
76297;BME280;65104;52.994;6.552;2023-05-19T09:59:23;102663.41;;;17.93;35.27
76297;BME280;65104;52.994;6.552;2023-05-19T10:01:53;102661.47;;;17.80;35.72
76297;BME280;65104;52.994;6.552;2023-05-19T10:04:19;102652.41;;;18.60;35.89
76297;BME280;65104;52.994;6.552;2023-05-19T10:06:49;102650.97;;;19.53;34.66
76297;BME280;65104;52.994;6.552;2023-05-19T10:09:23;102649.50;;;19.79;33.96
76297;BME280;65104;52.994;6.552;2023-05-19T10:11:52;102650.66;;;20.10;32.96
76297;BME280;65104;52.994;6.552;2023-05-19T10:14:22;102648.47;;;19.62;31.74
76297;BME280;65104;52.994;6.552;2023-05-19T10:16:51;102653.38;;;20.21;34.20
76297;BME280;65104;52.994;6.552;2023-05-19T10:19:21;102649.94;;;20.31;32.00
76297;BME280;65104;52.994;6.552;2023-05-19T10:21:47;102640.06;;;21.25;33.66
76297;BME280;65104;52.994;6.552;2023-05-19T10:24:12;102634.69;;;20.93;30.65
76297;BME280;65104;52.994;6.552;2023-05-19T10:26:41;102637.47;;;21.28;31.65
76297;BME280;65104;52.994;6.552;2023-05-19T10:29:08;102648.34;;;20.45;33.35
76297;BME280;65104;52.994;6.552;2023-05-19T10:31:35;102632.78;;;20.60;31.46
76297;BME280;65104;52.994;6.552;2023-05-19T10:37:12;102627.53;;;20.54;31.83
76297;BME280;65104;52.994;6.552;2023-05-19T10:39:42;102629.59;;;21.22;33.73
76297;BME280;65104;52.994;6.552;2023-05-19T10:42:18;102629.66;;;21.42;32.43
76297;BME280;65104;52.994;6.552;2023-05-19T10:47:23;102628.56;;;20.87;31.10
76297;BME280;65104;52.994;6.552;2023-05-19T10:49:50;102618.78;;;20.51;32.20
76297;BME280;65104;52.994;6.552;2023-05-19T10:52:21;102624.22;;;20.89;35.46
76297;BME280;65104;52.994;6.552;2023-05-19T10:54:47;102608.66;;;21.16;32.37
76297;BME280;65104;52.994;6.552;2023-05-19T10:57:16;102604.44;;;21.55;31.71
76297;BME280;65104;52.994;6.552;2023-05-19T10:59:42;102607.94;;;21.83;33.27
76297;BME280;65104;52.994;6.552;2023-05-19T11:02:42;102601.69;;;21.11;32.65
76297;BME280;65104;52.994;6.552;2023-05-19T11:05:13;102597.47;;;22.22;30.15
76297;BME280;65104;52.994;6.552;2023-05-19T11:07:43;102605.28;;;21.84;30.41
76297;BME280;65104;52.994;6.552;2023-05-19T11:10:09;102603.53;;;21.66;31.91
76297;BME280;65104;52.994;6.552;2023-05-19T11:12:40;102598.38;;;21.98;34.14
76297;BME280;65104;52.994;6.552;2023-05-19T11:15:10;102604.44;;;21.68;30.90
76297;BME280;65104;52.994;6.552;2023-05-19T11:17:36;102601.84;;;22.06;32.80
76297;BME280;65104;52.994;6.552;2023-05-19T11:20:01;102594.84;;;22.34;32.23
76297;BME280;65104;52.994;6.552;2023-05-19T11:22:29;102602.66;;;22.40;31.07
76297;BME280;65104;52.994;6.552;2023-05-19T11:24:54;102597.44;;;21.95;30.55
76297;BME280;65104;52.994;6.552;2023-05-19T11:27:29;102614.91;;;21.82;32.05
76297;BME280;65104;52.994;6.552;2023-05-19T11:30:08;102604.47;;;22.10;31.28
76297;BME280;65104;52.994;6.552;2023-05-19T11:32:35;102604.44;;;21.70;34.64
76297;BME280;65104;52.994;6.552;2023-05-19T11:35:07;102594.81;;;22.40;32.40
76297;BME280;65104;52.994;6.552;2023-05-19T11:37:34;102603.59;;;21.98;32.97
76297;BME280;65104;52.994;6.552;2023-05-19T11:40:03;102597.38;;;22.60;32.09
76297;BME280;65104;52.994;6.552;2023-05-19T11:42:33;102589.63;;;22.27;32.22
76297;BME280;65104;52.994;6.552;2023-05-19T11:45:02;102586.84;;;22.85;35.80
76297;BME280;65104;52.994;6.552;2023-05-19T11:47:30;102586.84;;;22.83;31.05
76297;BME280;65104;52.994;6.552;2023-05-19T11:49:57;102575.56;;;22.61;30.66
76297;BME280;65104;52.994;6.552;2023-05-19T11:52:23;102585.13;;;22.65;31.65
76297;BME280;65104;52.994;6.552;2023-05-19T11:54:50;102589.63;;;22.12;32.45
76297;BME280;65104;52.994;6.552;2023-05-19T11:57:15;102587.88;;;22.17;31.93
76297;BME280;65104;52.994;6.552;2023-05-19T11:59:41;102597.41;;;21.32;33.29
76297;BME280;65104;52.994;6.552;2023-05-19T12:02:18;102600.13;;;21.99;32.28
76297;BME280;65104;52.994;6.552;2023-05-19T12:04:46;102584.38;;;21.51;33.14
76297;BME280;65104;52.994;6.552;2023-05-19T12:07:11;102584.38;;;21.55;33.53
76297;BME280;65104;52.994;6.552;2023-05-19T12:09:38;102574.78;;;21.47;34.51
76297;BME280;65104;52.994;6.552;2023-05-19T12:12:04;102573.91;;;21.66;33.91
76297;BME280;65104;52.994;6.552;2023-05-19T12:14:29;102579.16;;;21.54;33.38
76297;BME280;65104;52.994;6.552;2023-05-19T12:16:55;102585.28;;;21.65;32.56
76297;BME280;65104;52.994;6.552;2023-05-19T12:19:22;102584.38;;;21.52;32.45
76297;BME280;65104;52.994;6.552;2023-05-19T12:21:50;102572.16;;;21.50;35.67
76297;BME280;65104;52.994;6.552;2023-05-19T12:24:16;102571.16;;;20.99;33.54
76297;BME280;65104;52.994;6.552;2023-05-19T12:26:41;102566.78;;;20.89;35.97
76297;BME280;65104;52.994;6.552;2023-05-19T12:29:07;102556.47;;;21.31;35.35
76297;BME280;65104;52.994;6.552;2023-05-19T12:31:35;102564.31;;;21.94;33.21
76297;BME280;65104;52.994;6.552;2023-05-19T12:34:01;102563.41;;;22.42;32.83
76297;BME280;65104;52.994;6.552;2023-05-19T12:36:27;102564.34;;;22.15;32.13
76297;BME280;65104;52.994;6.552;2023-05-19T12:38:55;102549.53;;;21.91;32.72
76297;BME280;65104;52.994;6.552;2023-05-19T12:41:22;102557.28;;;21.11;35.30
76297;BME280;65104;52.994;6.552;2023-05-19T12:43:48;102559.94;;;21.33;36.36
76297;BME280;65104;52.994;6.552;2023-05-19T12:46:17;102566.69;;;20.65;35.46
76297;BME280;65104;52.994;6.552;2023-05-19T12:48:43;102562.28;;;20.54;36.75
76297;BME280;65104;52.994;6.552;2023-05-19T12:51:09;102561.56;;;20.98;36.06
76297;BME280;65104;52.994;6.552;2023-05-19T12:53:36;102556.50;;;21.62;34.67
76297;BME280;65104;52.994;6.552;2023-05-19T12:56:10;102551.25;;;21.79;32.98
76297;BME280;65104;52.994;6.552;2023-05-19T12:58:36;102549.44;;;22.43;31.79
76297;BME280;65104;52.994;6.552;2023-05-19T13:01:03;102550.34;;;22.21;31.89
76297;BME280;65104;52.994;6.552;2023-05-19T13:03:28;102546.00;;;21.95;38.06
76297;BME280;65104;52.994;6.552;2023-05-19T13:05:53;102546.81;;;22.40;33.29
76297;BME280;65104;52.994;6.552;2023-05-19T13:08:20;102533.81;;;21.88;31.66
76297;BME280;65104;52.994;6.552;2023-05-19T13:10:47;102536.44;;;21.76;32.42
76297;BME280;65104;52.994;6.552;2023-05-19T13:13:13;102546.03;;;22.09;32.62
76297;BME280;65104;52.994;6.552;2023-05-19T13:15:41;102538.84;;;22.64;32.27